Time;durP1;ratioP1;P1;durP2;ratioP2;P2;SDS_P1;SDS_P2;PMS_P1;PMS_P2;Temp;Humidity;BMP_temperature;BMP_pressure;BME280_temperature;BME280_humidity;BME280_pressure;Samples;Min_cycle;Max_cycle;Signal;HPM_P1;HPM_P2
2024/04/05 00:00:09;;;;;;;0.47;0.47;;;;;;;20.87;46.62;100409.00;2290678;76;50129;-81
2024/04/05 00:03:04;;;;;;;1.42;0.50;;;;;;;20.87;46.57;100412.52;2314380;75;22816;-82
2024/04/05 00:06:06;;;;;;;1.35;0.57;;;;;;;20.87;46.56;100407.66;2290653;76;50740;-81
2024/04/05 00:09:09;;;;;;;1.77;0.50;;;;;;;20.82;46.64;100412.30;2315539;76;51661;-81
2024/04/05 00:12:11;;;;;;;0.42;0.42;;;;;;;20.87;46.51;100410.34;2315444;76;51525;-81
2024/04/05 00:15:13;;;;;;;1.32;0.50;;;;;;;20.89;46.47;100417.70;2290964;76;52317;-81
2024/04/05 00:18:17;;;;;;;0.57;0.53;;;;;;;20.87;46.49;100404.97;2291258;76;50481;-81
2024/04/05 00:21:19;;;;;;;0.90;0.60;;;;;;;20.85;46.59;100408.38;2315236;76;51594;-81
2024/04/05 00:24:21;;;;;;;0.88;0.50;;;;;;;20.87;46.53;100406.31;2291145;76;50074;-82
2024/04/05 00:27:23;;;;;;;1.35;0.90;;;;;;;20.88;46.47;100407.47;2315117;76;52377;-81
2024/04/05 00:30:26;;;;;;;1.20;0.40;;;;;;;20.87;46.53;100406.31;2317205;76;50590;-81
2024/04/05 00:33:28;;;;;;;0.93;0.57;;;;;;;20.87;46.54;100399.06;2315433;76;51456;-80
2024/04/05 00:36:30;;;;;;;0.60;0.40;;;;;;;20.87;46.53;100403.63;2315297;76;50661;-82
2024/04/05 00:39:32;;;;;;;0.80;0.47;;;;;;;20.85;46.58;100401.65;2291388;76;51070;-81
2024/04/05 00:42:37;;;;;;;1.12;0.68;;;;;;;20.84;46.56;100408.07;2315470;75;51560;-82
2024/04/05 00:45:42;;;;;;;0.80;0.42;;;;;;;20.86;46.54;100412.73;2291385;76;22331;-82
2024/04/05 00:48:43;;;;;;;;;;;;;;;20.84;46.52;100414.80;2294163;76;50134;-81
2024/04/05 00:51:45;;;;;;;0.60;0.50;;;;;;;20.85;46.57;100419.13;2315800;76;51493;-82
2024/04/05 00:54:47;;;;;;;2.80;0.82;;;;;;;20.84;46.56;100422.86;2315899;76;50712;-81
2024/04/05 00:57:50;;;;;;;1.67;0.50;;;;;;;20.87;46.50;100426.48;2293302;76;50160;-79
2024/04/05 01:00:53;;;;;;;1.20;0.45;;;;;;;20.85;46.60;100432.05;2317838;76;50849;-83
2024/04/05 01:03:59;;;;;;;1.25;0.50;;;;;;;20.84;46.59;100433.63;2316717;76;51151;-82
2024/04/05 01:06:59;;;;;;;1.17;0.50;;;;;;;20.84;46.59;100434.96;2314000;76;23005;-82
2024/04/05 01:10:01;;;;;;;1.12;0.50;;;;;;;20.86;46.53;100439.63;2315324;76;50193;-82
2024/04/05 01:13:07;;;;;;;0.40;0.33;;;;;;;20.86;46.53;100436.94;2291211;76;50997;-82
2024/04/05 01:16:10;;;;;;;1.00;0.60;;;;;;;20.85;46.56;100432.05;2316874;75;50761;-82
2024/04/05 01:19:13;;;;;;;0.68;0.50;;;;;;;20.86;46.55;100430.22;2315437;76;50473;-81
2024/04/05 01:22:15;;;;;;;0.60;0.40;;;;;;;20.86;46.48;100431.56;2315316;76;52026;-82
2024/04/05 01:25:18;;;;;;;1.07;0.70;;;;;;;20.83;46.49;100431.94;2315115;76;51626;-82
2024/04/05 01:28:20;;;;;;;1.92;0.68;;;;;;;20.82;46.50;100428.43;2315268;76;50979;-82
2024/04/05 01:31:22;;;;;;;1.72;0.60;;;;;;;20.87;46.44;100434.55;2290992;76;50121;-82
2024/04/05 01:34:24;;;;;;;1.20;0.50;;;;;;;20.86;46.42;100439.63;2315335;76;50724;-82
2024/04/05 01:37:26;;;;;;;2.87;0.90;;;;;;;20.84;46.46;100434.96;2290875;76;51549;-81
2024/04/05 01:40:29;;;;;;;0.72;0.40;;;;;;;20.86;46.42;100447.70;2315205;76;51458;-81
2024/04/05 01:43:31;;;;;;;1.82;0.70;;;;;;;20.87;46.36;100443.97;2315296;76;51458;-81
2024/04/05 01:46:33;;;;;;;1.42;0.88;;;;;;;20.86;46.37;100447.17;2290905;76;49454;-81
2024/04/05 01:49:35;;;;;;;1.00;0.50;;;;;;;20.84;46.44;100445.72;2315338;76;50487;-81
2024/04/05 01:52:37;;;;;;;1.05;0.60;;;;;;;20.87;46.33;100438.59;2284211;76;51669;-80
2024/04/05 01:55:39;;;;;;;1.50;0.60;;;;;;;20.84;46.40;100440.34;2290721;76;50088;-81
2024/04/05 01:58:42;;;;;;;0.53;0.42;;;;;;;20.86;46.41;100452.55;2315182;76;50752;-81
2024/04/05 02:01:45;;;;;;;1.65;0.50;;;;;;;20.84;46.45;100450.58;2317050;76;51298;-82
2024/04/05 02:04:47;;;;;;;1.87;0.60;;;;;;;20.84;46.44;100453.27;2291058;76;50986;-81
2024/04/05 02:07:49;;;;;;;1.17;0.60;;;;;;;20.82;46.46;100441.88;2315218;76;50720;-82
2024/04/05 02:10:51;;;;;;;1.92;0.50;;;;;;;20.88;46.32;100456.37;2315458;76;51548;-82
2024/04/05 02:13:53;;;;;;;0.90;0.40;;;;;;;20.87;46.41;100455.55;2315363;76;50778;-82
2024/04/05 02:16:56;;;;;;;1.67;0.60;;;;;;;20.87;46.36;100460.09;2315106;76;50380;-82
2024/04/05 02:19:58;;;;;;;1.37;0.55;;;;;;;20.86;46.42;100463.83;2291235;76;49867;-81
2024/04/05 02:23:01;;;;;;;1.62;0.50;;;;;;;20.86;46.42;100459.80;2317057;76;51503;-82
2024/04/05 02:26:03;;;;;;;1.32;0.70;;;;;;;20.85;46.43;100465.67;2314954;76;50955;-82
2024/04/05 02:29:05;;;;;;;1.30;0.50;;;;;;;20.86;46.43;100461.97;2291023;76;51044;-80
2024/04/05 02:32:07;;;;;;;1.40;0.55;;;;;;;20.84;46.43;100459.17;2315278;76;50730;-82
2024/04/05 02:35:10;;;;;;;1.22;0.53;;;;;;;20.84;46.42;100459.17;2290725;76;51531;-81
2024/04/05 02:38:12;;;;;;;1.45;0.60;;;;;;;20.85;46.44;100459.47;2315242;76;51546;-79
2024/04/05 02:41:14;;;;;;;1.55;0.50;;;;;;;20.83;46.45;100459.69;2290989;76;50137;-80
2024/04/05 02:44:17;;;;;;;1.90;0.68;;;;;;;20.85;46.44;100462.98;2291080;76;51682;-81
2024/04/05 02:47:19;;;;;;;1.75;0.60;;;;;;;20.86;46.41;100464.66;2316891;76;50373;-81
2024/04/05 02:50:21;;;;;;;0.82;0.50;;;;;;;20.86;46.38;100470.56;2315469;76;50427;-81
2024/04/05 02:53:24;;;;;;;0.82;0.60;;;;;;;20.84;46.45;100472.61;2284484;76;50102;-81
2024/04/05 02:56:26;;;;;;;0.95;0.50;;;;;;;20.86;46.42;100492.08;2315288;76;51849;-80
2024/04/05 02:59:29;;;;;;;0.98;0.65;;;;;;;20.86;46.37;100488.86;2315547;76;51471;-81
2024/04/05 03:02:31;;;;;;;2.75;0.70;;;;;;;20.86;46.41;100490.73;2315521;76;51435;-80
2024/04/05 03:05:33;;;;;;;1.07;0.40;;;;;;;20.84;46.43;100488.75;2291187;76;50447;-81
2024/04/05 03:08:35;;;;;;;2.58;0.60;;;;;;;20.84;46.39;100486.06;2290955;76;49561;-81
2024/04/05 03:11:38;;;;;;;1.05;0.60;;;;;;;20.85;46.36;100494.43;2316990;76;50433;-82
2024/04/05 03:14:40;;;;;;;1.22;0.60;;;;;;;20.85;46.39;100491.73;2315275;76;51465;-81
2024/04/05 03:17:43;;;;;;;1.77;0.55;;;;;;;20.82;46.42;100488.11;2290755;76;49599;-81
2024/04/05 03:20:45;;;;;;;1.37;0.60;;;;;;;20.82;46.40;100490.80;2315206;76;51500;-80
2024/04/05 03:23:47;;;;;;;0.55;0.40;;;;;;;20.83;46.40;100497.83;2315321;76;51468;-82
2024/04/05 03:26:49;;;;;;;1.15;0.65;;;;;;;20.82;46.39;100492.97;2315423;76;50237;-82
2024/04/05 03:29:52;;;;;;;1.42;0.60;;;;;;;20.81;46.43;100503.42;2317605;76;50181;-83
2024/04/05 03:32:54;;;;;;;2.00;0.68;;;;;;;20.80;46.43;100500.41;2291342;76;49837;-81
2024/04/05 03:35:56;;;;;;;1.22;0.50;;;;;;;20.81;46.41;100503.95;2315254;76;51574;-83
2024/04/05 03:39:00;;;;;;;1.70;0.90;;;;;;;20.85;46.26;100503.84;2315537;76;51517;-82
2024/04/05 03:42:02;;;;;;;0.95;0.45;;;;;;;20.84;46.31;100498.16;2315717;76;22415;-83
2024/04/05 03:45:05;;;;;;;1.77;0.70;;;;;;;20.81;46.40;100498.57;2291309;76;50763;-82
2024/04/05 03:48:07;;;;;;;1.12;0.50;;;;;;;20.82;46.37;100510.97;2291475;76;51533;-81
2024/04/05 03:51:09;;;;;;;1.77;0.60;;;;;;;20.82;46.35;100509.11;2291567;76;51465;-83
2024/04/05 03:54:11;;;;;;;1.40;0.65;;;;;;;20.85;46.32;100511.91;2315755;76;50239;-83
2024/04/05 03:57:14;;;;;;;2.02;0.62;;;;;;;20.86;46.28;100515.75;2291099;76;50089;-82
2024/04/05 04:00:16;;;;;;;1.32;0.57;;;;;;;20.85;46.37;100519.45;2315771;76;51571;-82
2024/04/05 04:03:18;;;;;;;1.32;0.68;;;;;;;20.81;46.42;100512.84;2291317;76;50414;-83
2024/04/05 04:06:20;;;;;;;1.10;0.50;;;;;;;20.85;46.36;100515.95;2284295;76;51068;-84
2024/04/05 04:09:24;;;;;;;0.75;0.40;;;;;;;20.82;46.39;100518.52;2315596;76;50405;-82
2024/04/05 04:12:27;;;;;;;1.75;0.55;;;;;;;20.85;46.30;100525.36;2317248;76;51036;-81
2024/04/05 04:15:29;;;;;;;0.80;0.57;;;;;;;20.85;46.33;100522.14;2315365;76;50290;-82
2024/04/05 04:18:32;;;;;;;1.60;0.60;;;;;;;20.82;46.36;100525.77;2315593;76;50366;-82
2024/04/05 04:21:35;;;;;;;1.40;0.57;;;;;;;20.87;46.24;100532.72;2315488;76;51442;-82
2024/04/05 04:24:37;;;;;;;2.22;0.60;;;;;;;20.84;46.36;100535.81;2315406;76;52121;-81
2024/04/05 04:27:39;;;;;;;0.60;0.50;;;;;;;20.86;46.26;100539.96;2291175;76;51816;-82
2024/04/05 04:30:45;;;;;;;1.25;0.70;;;;;;;20.82;46.37;100532.48;2291252;76;52346;-82
2024/04/05 04:33:45;;;;;;;1.55;0.55;;;;;;;20.82;46.39;100536.52;2315371;76;22345;-82
2024/04/05 04:36:47;;;;;;;2.22;0.55;;;;;;;20.84;46.36;100551.95;2314900;76;51552;-81
2024/04/05 04:39:49;;;;;;;1.35;0.82;;;;;;;20.84;46.34;100550.60;2315092;76;51492;-82
2024/04/05 04:42:52;;;;;;;1.65;0.60;;;;;;;20.84;46.34;100551.95;2315189;76;51464;-82
2024/04/05 04:45:54;;;;;;;2.00;0.60;;;;;;;20.87;46.33;100556.92;2283924;76;49161;-82
2024/04/05 04:48:57;;;;;;;1.60;0.60;;;;;;;20.86;46.34;100552.58;2315651;76;50699;-82
2024/04/05 04:51:59;;;;;;;2.17;0.65;;;;;;;20.85;46.36;100558.97;2315751;76;51550;-82
2024/04/05 04:55:02;;;;;;;1.37;0.60;;;;;;;20.85;46.31;100565.70;2291497;76;50034;-82
2024/04/05 04:58:04;;;;;;;2.27;0.70;;;;;;;20.84;46.37;100566.73;2315619;76;50830;-83
2024/04/05 05:01:07;;;;;;;1.15;0.55;;;;;;;20.85;46.39;100571.08;2317646;76;51379;-82
2024/04/05 05:04:12;;;;;;;0.82;0.40;;;;;;;20.83;46.36;100582.05;2315714;76;50974;-82
2024/04/05 05:07:13;;;;;;;1.42;0.50;;;;;;;20.84;46.36;100581.53;2315877;76;22290;-81
2024/04/05 05:10:16;;;;;;;3.15;0.60;;;;;;;20.82;46.42;100575.52;2291461;76;51050;-83
2024/04/05 05:13:18;;;;;;;0.70;0.50;;;;;;;20.81;46.43;100574.69;2291503;76;51572;-83
2024/04/05 05:16:22;;;;;;;1.35;0.80;;;;;;;20.81;46.44;100581.41;2315438;76;51516;-81
2024/04/05 05:19:24;;;;;;;1.65;0.65;;;;;;;20.83;46.37;100579.85;2315578;76;22409;-82
2024/04/05 05:22:26;;;;;;;1.35;0.50;;;;;;;20.82;46.41;100582.23;2315355;76;50801;-82
2024/04/05 05:25:28;;;;;;;1.50;0.60;;;;;;;20.81;46.44;100590.83;2314969;76;51496;-81
2024/04/05 05:28:31;;;;;;;2.35;0.60;;;;;;;20.82;46.43;100580.89;2291335;76;50181;-81
2024/04/05 05:31:33;;;;;;;0.75;0.53;;;;;;;20.84;46.45;100590.94;2315751;76;50943;-82
2024/04/05 05:34:35;;;;;;;2.12;0.60;;;;;;;20.81;46.49;100593.52;2292469;76;50108;-83
2024/04/05 05:37:37;;;;;;;2.33;0.62;;;;;;;20.82;46.50;100595.69;2291334;76;50713;-81
2024/04/05 05:40:39;;;;;;;2.17;0.70;;;;;;;20.82;46.52;100609.13;2316092;76;50707;-82
2024/04/05 05:43:42;;;;;;;0.93;0.60;;;;;;;20.81;46.57;100610.17;2284487;76;49472;-82
2024/04/05 05:46:44;;;;;;;2.00;0.78;;;;;;;20.83;46.55;100618.36;2315272;76;50645;-81
2024/04/05 05:49:46;;;;;;;1.52;0.70;;;;;;;20.84;46.53;100625.38;2315282;76;50254;-82
2024/04/05 05:52:49;;;;;;;2.40;0.72;;;;;;;20.83;46.55;100619.70;2315450;76;50820;-82
2024/04/05 05:55:51;;;;;;;1.05;0.60;;;;;;;20.84;46.58;100625.91;2315026;76;50362;-82
2024/04/05 05:58:54;;;;;;;2.37;0.70;;;;;;;20.82;46.59;100624.74;2290905;76;51061;-82
2024/04/05 06:01:56;;;;;;;4.30;0.93;;;;;;;20.84;46.57;100620.53;2315137;76;50766;-82
2024/04/05 06:04:59;;;;;;;1.35;0.50;;;;;;;20.84;46.58;100622.70;2314996;76;50991;-81
2024/04/05 06:08:01;;;;;;;3.02;0.75;;;;;;;20.82;46.62;100624.74;2315162;76;50740;-81
2024/04/05 06:11:03;;;;;;;1.60;0.62;;;;;;;20.86;46.60;100631.92;2315189;76;51551;-81
2024/04/05 06:14:06;;;;;;;1.77;0.80;;;;;;;20.86;46.60;100631.92;2291306;76;50670;-81
2024/04/05 06:17:11;;;;;;;2.17;0.72;;;;;;;20.84;46.60;100629.94;2315308;76;51475;-81
2024/04/05 06:20:15;;;;;;;2.20;0.65;;;;;;;20.84;46.62;100630.77;2315059;76;51571;-81
2024/04/05 06:23:17;;;;;;;1.35;0.60;;;;;;;20.85;46.63;100632.41;2291282;76;49691;-81
2024/04/05 06:26:19;;;;;;;1.57;0.70;;;;;;;20.84;46.63;100624.56;2314899;76;50727;-82
2024/04/05 06:29:21;;;;;;;2.05;0.72;;;;;;;20.85;46.72;100635.62;2315249;76;50279;-82
2024/04/05 06:32:24;;;;;;;1.05;0.65;;;;;;;20.86;46.71;100637.30;2316692;76;50466;-82
2024/04/05 06:35:26;;;;;;;1.57;0.70;;;;;;;20.87;46.81;100640.30;2314927;76;51491;-81
2024/04/05 06:38:28;;;;;;;1.42;0.57;;;;;;;20.87;46.80;100637.61;2315227;76;51481;-82
2024/04/05 06:41:31;;;;;;;0.98;0.62;;;;;;;20.88;46.83;100650.87;2290995;76;50203;-82
2024/04/05 06:44:39;;;;;;;2.45;0.72;;;;;;;20.89;46.82;100643.63;2315035;75;51695;-82
2024/04/05 06:47:37;;;;;;;1.62;0.72;;;;;;;20.89;46.83;100640.93;2313300;76;22207;-81
2024/04/05 06:50:39;;;;;;;1.92;0.78;;;;;;;20.91;46.87;100652.82;2315185;76;50509;-81
2024/04/05 06:53:41;;;;;;;1.85;0.70;;;;;;;20.90;46.90;100647.95;2315360;76;50338;-81
2024/04/05 06:56:44;;;;;;;1.42;0.55;;;;;;;20.89;46.90;100644.97;2290817;76;50070;-81
2024/04/05 06:59:46;;;;;;;1.30;0.70;;;;;;;20.90;46.87;100636.38;2315256;76;51493;-80
2024/04/05 07:02:48;;;;;;;0.98;0.60;;;;;;;20.91;46.90;100639.38;2315186;76;50432;-82
2024/04/05 07:06:07;;;;;;;2.67;1.02;;;;;;;20.91;46.97;100636.19;2315137;76;50367;-81
2024/04/05 07:09:03;;;;;;;1.37;0.68;;;;;;;20.94;47.16;100641.17;2313857;75;22831;-81
2024/04/05 07:12:06;;;;;;;2.27;0.90;;;;;;;20.94;47.17;100638.48;2317079;76;22428;-82
2024/04/05 07:15:09;;;;;;;1.20;0.57;;;;;;;20.96;47.21;100640.45;2291008;76;50585;-82
2024/04/05 07:18:12;;;;;;;2.05;0.80;;;;;;;20.95;47.23;100637.44;2316931;76;50819;-81
2024/04/05 07:21:16;;;;;;;2.52;0.80;;;;;;;20.94;47.39;100647.89;2291138;76;51687;-83
2024/04/05 07:24:18;;;;;;;1.67;0.70;;;;;;;20.94;47.29;100645.20;2315360;76;51688;-82
2024/04/05 07:27:20;;;;;;;2.20;0.88;;;;;;;20.92;47.36;100643.22;2315068;76;50196;-81
2024/04/05 07:30:22;;;;;;;2.65;0.70;;;;;;;20.93;47.26;100650.77;2315314;76;52207;-82
2024/04/05 07:33:25;;;;;;;2.60;0.85;;;;;;;20.92;47.35;100645.91;2315425;76;50339;-83
2024/04/05 07:36:27;;;;;;;1.62;0.78;;;;;;;20.94;47.32;100656.48;2284340;76;51094;-82
2024/04/05 07:39:29;;;;;;;1.37;0.78;;;;;;;20.94;47.35;100649.23;2315431;76;50736;-82
2024/04/05 07:42:31;;;;;;;2.10;0.90;;;;;;;20.93;47.40;100648.08;2315667;76;50439;-83
2024/04/05 07:45:34;;;;;;;2.42;0.90;;;;;;;20.96;47.39;100650.36;2290688;76;51507;-82
2024/04/05 07:48:36;;;;;;;2.15;0.70;;;;;;;20.94;47.33;100653.27;2317077;76;50759;-83
2024/04/05 07:51:38;;;;;;;2.10;0.80;;;;;;;20.95;47.39;100657.61;2315261;76;51580;-82
2024/04/05 07:54:43;;;;;;;2.65;0.85;;;;;;;20.95;47.38;100652.75;2315301;76;51596;-81
2024/04/05 07:57:45;;;;;;;;;;;;;;;20.95;47.42;100672.41;2316889;76;52058;-83
2024/04/05 08:00:48;;;;;;;1.87;0.60;;;;;;;20.94;47.38;100662.69;2315144;76;50420;-82
2024/04/05 08:03:50;;;;;;;2.10;0.90;;;;;;;20.95;47.35;100656.78;2290954;76;50736;-83
2024/04/05 08:06:57;;;;;;;1.57;0.75;;;;;;;20.94;47.33;100663.20;2315126;76;51177;-81
2024/04/05 08:09:57;;;;;;;1.60;0.70;;;;;;;20.96;47.35;100657.94;2315103;76;22396;-82
2024/04/05 08:12:59;;;;;;;2.77;0.70;;;;;;;20.95;47.32;100658.95;2315244;76;51471;-81
2024/04/05 08:16:01;;;;;;;2.20;0.80;;;;;;;20.95;47.40;100660.30;2315039;76;51503;-81
2024/04/05 08:19:04;;;;;;;2.37;0.90;;;;;;;20.95;47.40;100661.64;2284197;76;50026;-82
2024/04/05 08:22:11;;;;;;;2.08;0.90;;;;;;;20.96;47.37;100670.54;2315162;76;51475;-81
2024/04/05 08:25:10;;;;;;;2.10;0.82;;;;;;;20.96;47.39;100671.39;2313967;76;22424;-82
2024/04/05 08:28:12;;;;;;;2.77;0.68;;;;;;;20.95;47.45;100667.02;2315352;76;50454;-82
2024/04/05 08:31:14;;;;;;;1.87;0.80;;;;;;;20.96;47.45;100669.19;2315404;76;52199;-82
2024/04/05 08:34:16;;;;;;;4.55;1.00;;;;;;;20.95;47.47;100668.37;2290892;76;49277;-81
2024/04/05 08:37:18;;;;;;;1.57;0.75;;;;;;;20.95;47.38;100671.58;2315165;76;50510;-83
2024/04/05 08:40:21;;;;;;;2.55;0.82;;;;;;;20.96;47.39;100682.64;2315337;76;50758;-82
2024/04/05 08:43:24;;;;;;;3.10;0.90;;;;;;;20.95;47.40;100690.41;2290922;76;49554;-82
2024/04/05 08:46:26;;;;;;;2.92;1.00;;;;;;;20.95;47.42;100687.20;2315017;76;51330;-81
2024/04/05 08:49:28;;;;;;;2.10;0.80;;;;;;;20.96;47.38;100694.26;2316932;76;50797;-81
2024/04/05 08:52:31;;;;;;;1.92;0.90;;;;;;;20.97;47.36;100701.28;2315259;76;51012;-81
2024/04/05 08:55:33;;;;;;;3.52;1.02;;;;;;;20.96;47.39;100703.67;2314918;76;50800;-83
2024/04/05 08:58:35;;;;;;;2.00;0.90;;;;;;;20.96;47.41;100697.44;2290696;76;51013;-82
2024/04/05 09:01:38;;;;;;;2.47;0.78;;;;;;;20.97;47.40;100705.32;2315149;76;51582;-83
2024/04/05 09:04:41;;;;;;;1.57;0.90;;;;;;;20.97;47.40;100708.02;2315625;76;21783;-82
2024/04/05 09:07:43;;;;;;;3.50;1.00;;;;;;;20.97;47.45;100712.05;2290914;76;49991;-82
2024/04/05 09:10:53;;;;;;;1.30;0.80;;;;;;;20.98;47.44;100711.00;2315466;76;50338;-82
2024/04/05 09:14:04;;;;;;;2.85;1.00;;;;;;;20.98;47.43;100708.84;2315432;76;50446;-81
2024/04/05 09:17:16;;;;;;;3.08;0.88;;;;;;;20.99;47.48;100707.30;2291774;76;50743;-80
2024/04/05 09:20:24;;;;;;;2.12;0.82;;;;;;;20.98;47.42;100702.94;2316977;76;51578;-82
2024/04/05 09:23:27;;;;;;;2.17;1.02;;;;;;;20.99;47.48;100697.89;2308739;76;49628;-82
2024/04/05 09:26:29;;;;;;;2.27;0.98;;;;;;;21.00;47.47;100687.44;2315405;76;50428;-82
2024/04/05 09:29:31;;;;;;;2.17;0.80;;;;;;;21.02;47.43;100693.97;2291176;76;50711;-82
2024/04/05 09:32:33;;;;;;;3.05;1.07;;;;;;;21.01;47.51;100700.36;2284264;76;49673;-82
2024/04/05 09:35:38;;;;;;;2.10;0.80;;;;;;;21.01;47.48;100697.16;2316999;75;50247;-81
2024/04/05 09:38:40;;;;;;;3.02;0.95;;;;;;;21.01;47.49;100698.50;2315119;76;51434;-82
2024/04/05 09:41:44;;;;;;;3.22;0.95;;;;;;;20.98;47.51;100686.80;2291327;76;50315;-82
2024/04/05 09:44:46;;;;;;;2.50;1.07;;;;;;;20.99;47.48;100692.51;2315475;76;51182;-81
2024/04/05 09:47:49;;;;;;;3.25;1.10;;;;;;;20.99;47.56;100681.75;2291135;76;50225;-82
2024/04/05 09:50:52;;;;;;;2.25;0.88;;;;;;;20.99;47.64;100685.78;2317864;76;51468;-82
2024/04/05 09:53:54;;;;;;;2.47;0.82;;;;;;;20.98;47.59;100688.14;2315708;76;51618;-82
2024/04/05 09:56:57;;;;;;;1.02;0.70;;;;;;;20.98;47.63;100692.17;2291217;76;50101;-82
2024/04/05 09:59:59;;;;;;;2.58;0.93;;;;;;;21.01;47.64;100701.71;2315560;76;50514;-82
2024/04/05 10:03:01;;;;;;;2.33;1.00;;;;;;;20.99;47.65;100694.34;2315496;76;50705;-82
2024/04/05 10:06:11;;;;;;;2.90;0.98;;;;;;;20.99;47.62;100680.89;2315325;76;52529;-82
2024/04/05 10:09:21;;;;;;;1.67;0.95;;;;;;;20.99;47.57;100681.75;2315221;76;50355;-83
2024/04/05 10:12:25;;;;;;;1.87;0.90;;;;;;;21.00;47.61;100671.81;2291186;76;49587;-83
2024/04/05 10:15:27;;;;;;;2.55;0.80;;;;;;;21.02;47.58;100673.80;2317191;75;23030;-82
2024/04/05 10:18:30;;;;;;;1.70;0.78;;;;;;;21.03;47.61;100691.06;2315375;76;51455;-81
2024/04/05 10:21:32;;;;;;;2.50;1.10;;;;;;;21.02;47.64;100686.73;2290733;76;49624;-80
2024/04/05 10:24:35;;;;;;;1.87;0.90;;;;;;;21.03;47.58;100688.37;2315140;76;50687;-82
2024/04/05 10:27:37;;;;;;;1.95;0.90;;;;;;;21.06;47.57;100698.73;2316794;76;51907;-81
2024/04/05 10:30:39;;;;;;;3.22;1.07;;;;;;;21.08;47.67;100681.06;2315528;76;50381;-82
2024/04/05 10:33:46;;;;;;;2.50;0.82;;;;;;;21.09;47.46;100681.37;2315508;76;50425;-82
2024/04/05 10:36:48;;;;;;;2.65;0.90;;;;;;;21.10;47.46;100679.02;2317759;75;52011;-83
2024/04/05 10:39:55;;;;;;;3.25;1.05;;;;;;;21.09;47.52;100671.46;2291649;76;50911;-81
2024/04/05 10:42:57;;;;;;;;;;;;;;;21.10;47.50;100682.52;2317124;75;49922;-82
2024/04/05 10:45:59;;;;;;;2.87;0.95;;;;;;;21.11;47.63;100669.89;2316810;75;50626;-82
2024/04/05 10:49:02;;;;;;;1.32;0.72;;;;;;;21.10;47.58;100654.27;2265910;76;51009;-82
2024/04/05 10:52:05;;;;;;;4.78;1.20;;;;;;;21.13;47.63;100661.12;2315381;76;51549;-82
2024/04/05 10:55:12;;;;;;;2.77;0.90;;;;;;;21.14;47.62;100653.34;2291023;76;50934;-82
2024/04/05 10:58:14;;;;;;;3.33;1.10;;;;;;;21.12;47.50;100647.85;2291507;76;50913;-81
2024/04/05 11:01:17;;;;;;;2.98;1.20;;;;;;;21.10;47.55;100642.17;2291439;76;51490;-82
2024/04/05 11:04:27;;;;;;;3.80;1.10;;;;;;;21.12;47.55;100627.67;2291094;76;49434;-82
2024/04/05 11:07:27;;;;;;;2.65;1.00;;;;;;;21.12;47.64;100648.70;2314171;76;22346;-82
2024/04/05 11:10:31;;;;;;;2.58;0.90;;;;;;;21.13;47.66;100642.80;2315412;76;51516;-82
2024/04/05 11:13:33;;;;;;;2.17;0.70;;;;;;;21.14;47.64;100629.66;2284282;76;50095;-81
2024/04/05 11:16:36;;;;;;;3.00;1.00;;;;;;;21.13;47.71;100631.52;2315054;76;51467;-82
2024/04/05 11:19:38;;;;;;;2.47;1.00;;;;;;;21.14;47.58;100631.00;2315343;76;50626;-82
2024/04/05 11:22:42;;;;;;;2.60;1.00;;;;;;;21.15;47.54;100618.70;2316976;76;50750;-82
2024/04/05 11:25:55;;;;;;;1.85;0.80;;;;;;;21.16;47.56;100623.05;2314722;76;50780;-82
2024/04/05 11:29:01;;;;;;;2.75;1.12;;;;;;;21.18;47.49;100620.16;2290649;76;49638;-81
2024/04/05 11:32:03;;;;;;;2.35;0.98;;;;;;;21.17;47.56;100609.06;2315194;76;51426;-82
2024/04/05 11:35:05;;;;;;;3.37;1.05;;;;;;;21.19;47.62;100592.21;2290835;76;50655;-81
2024/04/05 11:38:08;;;;;;;2.65;1.00;;;;;;;21.19;47.71;100584.96;2283935;76;51325;-82
2024/04/05 11:41:10;;;;;;;1.77;0.98;;;;;;;21.19;47.69;100565.30;2315052;76;51564;-82
2024/04/05 11:44:12;;;;;;;3.60;0.95;;;;;;;21.19;47.62;100558.58;2315079;76;51492;-82
2024/04/05 11:47:15;;;;;;;4.35;1.15;;;;;;;21.18;47.52;100559.63;2315158;76;51396;-82
2024/04/05 11:50:17;;;;;;;1.72;0.90;;;;;;;21.19;47.51;100552.67;2315407;76;51450;-82
2024/04/05 11:53:19;;;;;;;3.70;1.25;;;;;;;21.20;47.51;100532.00;2284274;76;51795;-81
2024/04/05 11:56:21;;;;;;;2.72;0.93;;;;;;;21.18;47.51;100534.06;2315188;76;51629;-82
2024/04/05 11:59:23;;;;;;;1.95;0.75;;;;;;;21.17;47.54;100538.62;2315537;76;50599;-81
2024/04/05 12:02:26;;;;;;;3.15;1.10;;;;;;;21.19;47.52;100546.47;2291372;76;51008;-82
2024/04/05 12:05:28;;;;;;;2.40;1.10;;;;;;;21.19;47.62;100537.88;2315355;76;50408;-82
2024/04/05 12:08:30;;;;;;;2.47;1.00;;;;;;;21.20;47.60;100529.31;2315490;76;50369;-81
2024/04/05 12:11:32;;;;;;;2.25;0.82;;;;;;;21.23;47.54;100528.37;2315630;76;50716;-82
2024/04/05 12:14:34;;;;;;;2.37;1.00;;;;;;;21.24;47.47;100519.78;2315592;76;51592;-82
2024/04/05 12:17:37;;;;;;;2.37;0.85;;;;;;;21.24;47.43;100510.36;2291140;76;50208;-81
2024/04/05 12:20:43;;;;;;;3.70;0.93;;;;;;;21.23;47.41;100506.84;2315704;76;50943;-81
2024/04/05 12:23:45;;;;;;;2.45;0.98;;;;;;;21.24;47.40;100504.98;2315093;76;51637;-82
2024/04/05 12:26:48;;;;;;;2.65;1.00;;;;;;;21.25;47.39;100494.55;2290849;76;50177;-81
2024/04/05 12:29:50;;;;;;;2.75;1.10;;;;;;;21.25;47.44;100498.58;2315462;76;50245;-82
2024/04/05 12:32:52;;;;;;;1.82;1.00;;;;;;;21.27;47.41;100503.22;2315556;76;50682;-82
2024/04/05 12:36:00;;;;;;;2.75;1.12;;;;;;;21.25;47.42;100487.30;2315296;76;50855;-82
2024/04/05 12:39:07;;;;;;;2.37;1.00;;;;;;;21.26;47.40;100478.70;2315803;76;22392;-83
2024/04/05 12:42:05;;;;;;;1.98;0.85;;;;;;;21.26;47.48;100461.20;2314997;76;22409;-82
2024/04/05 12:45:12;;;;;;;1.87;0.80;;;;;;;21.28;47.43;100467.22;2315305;76;51454;-82
2024/04/05 12:48:14;;;;;;;2.83;0.70;;;;;;;21.26;47.38;100459.34;2292077;76;51016;-82
2024/04/05 12:51:17;;;;;;;3.25;1.20;;;;;;;21.24;47.57;100463.27;2291006;76;51701;-82
2024/04/05 12:54:19;;;;;;;2.80;0.80;;;;;;;21.25;47.55;100460.91;2315265;76;50983;-81
2024/04/05 12:57:23;;;;;;;1.77;1.00;;;;;;;21.26;47.43;100471.97;2315180;76;50811;-80
2024/04/05 13:00:25;;;;;;;4.28;1.00;;;;;;;21.26;47.40;100463.38;2315743;76;22270;-81
2024/04/05 13:03:28;;;;;;;1.62;0.70;;;;;;;21.26;47.36;100469.28;2291011;76;50410;-81
2024/04/05 13:06:30;;;;;;;2.27;0.75;;;;;;;21.24;47.37;100473.51;2290787;76;51391;-82
2024/04/05 13:09:32;;;;;;;2.80;1.00;;;;;;;21.23;47.31;100477.25;2315284;76;51506;-82
2024/04/05 13:12:34;;;;;;;1.67;0.80;;;;;;;21.24;47.28;100467.30;2316985;76;50559;-83
2024/04/05 13:15:36;;;;;;;4.08;0.90;;;;;;;21.22;47.35;100470.71;2291071;76;49583;-81
2024/04/05 13:18:39;;;;;;;3.08;0.90;;;;;;;21.20;47.41;100478.19;2315355;76;50653;-80
2024/04/05 13:21:42;;;;;;;2.52;1.07;;;;;;;21.21;47.42;100479.83;2315352;76;50438;-81
2024/04/05 13:24:44;;;;;;;2.83;1.00;;;;;;;21.18;47.50;100469.48;2315250;76;50416;-82
2024/04/05 13:27:48;;;;;;;2.37;0.85;;;;;;;21.18;47.60;100454.68;2291108;76;51529;-81
2024/04/05 13:30:58;;;;;;;3.08;1.15;;;;;;;21.18;47.62;100445.27;2290954;76;49724;-81
2024/04/05 13:34:06;;;;;;;2.08;0.95;;;;;;;21.15;47.73;100434.39;2315259;76;50486;-82
2024/04/05 13:37:07;;;;;;;1.70;1.00;;;;;;;21.15;47.70;100425.50;2315171;76;22330;-80
2024/04/05 13:40:10;;;;;;;4.20;1.00;;;;;;;21.14;47.79;100410.37;2290598;76;49373;-81
2024/04/05 13:43:12;;;;;;;1.10;0.75;;;;;;;21.14;47.76;100396.92;2317111;76;51360;-81
2024/04/05 13:46:18;;;;;;;2.65;0.95;;;;;;;21.13;47.85;100385.34;2315103;76;50273;-82
2024/04/05 13:49:20;;;;;;;2.60;0.98;;;;;;;21.13;47.85;100379.13;2291055;76;50775;-82
2024/04/05 13:52:24;;;;;;;2.65;1.10;;;;;;;21.13;47.84;100375.92;2315192;76;51797;-81
2024/04/05 13:55:27;;;;;;;2.35;0.82;;;;;;;21.15;47.84;100370.34;2290788;76;49622;-81
2024/04/05 13:58:30;;;;;;;2.37;0.80;;;;;;;21.17;47.82;100380.36;2315235;76;51544;-80
2024/04/05 14:01:32;;;;;;;3.25;0.82;;;;;;;21.14;47.87;100385.64;2315258;76;51513;-80
2024/04/05 14:04:36;;;;;;;1.57;0.98;;;;;;;21.16;47.82;100382.23;2290882;76;50075;-81
2024/04/05 14:07:38;;;;;;;4.40;1.07;;;;;;;21.16;47.83;100371.47;2314890;76;50794;-81
2024/04/05 14:10:42;;;;;;;1.32;0.70;;;;;;;21.16;47.86;100358.02;2315184;76;50821;-80